8WI2 weather

Runway Leasing Inc Nr 1 Airport
Plainfield, Wisconsin, United States

Public forecast

Using degrees Fahrenheit for public forecast. Weather courtesy of forecast.io.

Closest aviation weather report (METAR) to Runway Leasing Inc Nr 1 Airport

Closest report is Wautoma Municipal Airport, 14.7 nm (27.2 km) SE. Retrieved 2019/10/22 18:56 UTC (1 hour ago):

KY50 221856Z AUTO 25015G21KT 4SM -RA BR OVC017 06/04 A2944 RMK AO2 RAB00 SLP972 P0000 T00610044

Closest aviation forecast (TAF) to Runway Leasing Inc Nr 1 Airport

Closest forecast is Central Wisconsin Airport, 33.7 nm (62.4 km) N. Retrieved 2019/10/22 18:40 UTC (1 hour ago):

TAF KCWA 221737Z 2218/2318 25013G22KT 4SM -SHRA BR OVC009 FM222000 26015G25KT 6SM -SHRA BR OVC012 FM230400 27012G20KT P6SM OVC016